createdAt,value
2022-12-20T00:02:28.739Z,0.60
2022-12-20T00:05:18.745Z,0.60
2022-12-20T00:08:06.372Z,0.50
2022-12-20T00:10:53.043Z,0.50
2022-12-20T00:13:41.229Z,0.50
2022-12-20T00:16:30.236Z,0.40
2022-12-20T00:19:17.277Z,0.40
2022-12-20T00:22:05.721Z,0.40
2022-12-20T00:24:52.938Z,0.40
2022-12-20T00:27:39.763Z,0.40
2022-12-20T00:30:27.028Z,0.40
2022-12-20T00:33:13.781Z,0.40
2022-12-20T00:36:00.792Z,0.40
2022-12-20T00:38:50.902Z,0.40
2022-12-20T00:41:37.759Z,0.40
2022-12-20T00:44:24.730Z,0.40
2022-12-20T00:47:11.859Z,0.40
2022-12-20T00:49:58.909Z,0.40
2022-12-20T00:52:46.032Z,0.50
2022-12-20T00:55:34.576Z,0.50
2022-12-20T00:58:21.856Z,0.60
2022-12-20T01:01:17.767Z,0.60
2022-12-20T01:04:05.291Z,0.60
2022-12-20T01:06:52.181Z,0.60
2022-12-20T01:09:40.068Z,0.70
2022-12-20T01:12:28.362Z,0.70
2022-12-20T01:15:15.679Z,0.70
2022-12-20T01:18:02.411Z,0.70
2022-12-20T01:20:49.230Z,0.60
2022-12-20T01:23:36.460Z,0.70
2022-12-20T01:26:26.355Z,0.70
2022-12-20T01:29:15.236Z,0.70
2022-12-20T01:32:02.594Z,0.70
2022-12-20T01:34:49.825Z,0.70
2022-12-20T01:37:37.168Z,0.70
2022-12-20T01:40:24.165Z,0.70
2022-12-20T01:43:13.842Z,0.80
2022-12-20T01:46:02.976Z,0.80
2022-12-20T01:48:53.728Z,0.80
2022-12-20T01:51:45.348Z,0.90
2022-12-20T01:54:36.033Z,0.90
2022-12-20T01:57:26.812Z,0.90
2022-12-20T02:00:16.147Z,0.90
2022-12-20T02:03:08.225Z,0.90
2022-12-20T02:05:55.593Z,0.80
2022-12-20T02:08:42.719Z,0.90
2022-12-20T02:11:50.416Z,0.80
2022-12-20T02:15:00.062Z,0.80
2022-12-20T02:17:54.055Z,0.80
2022-12-20T02:21:07.668Z,0.80
2022-12-20T02:24:23.865Z,0.70
2022-12-20T02:27:42.498Z,0.80
2022-12-20T02:30:36.360Z,0.80
2022-12-20T02:33:25.999Z,0.80
2022-12-20T02:36:13.084Z,0.80
2022-12-20T02:38:59.897Z,0.80
2022-12-20T02:41:51.843Z,0.90
2022-12-20T02:45:01.518Z,0.90
2022-12-20T02:47:58.519Z,0.90
2022-12-20T02:50:49.278Z,0.90
2022-12-20T02:53:37.603Z,0.90
2022-12-20T02:56:33.498Z,0.90
2022-12-20T02:59:23.534Z,0.80
2022-12-20T03:02:12.083Z,0.90
2022-12-20T03:05:01.147Z,0.90
2022-12-20T03:07:48.029Z,0.80
2022-12-20T03:10:34.989Z,0.80
2022-12-20T03:13:22.675Z,0.90
2022-12-20T03:16:10.893Z,0.90
2022-12-20T03:18:59.720Z,0.90
2022-12-20T03:21:48.632Z,0.90
2022-12-20T03:24:35.804Z,0.90
2022-12-20T03:27:22.893Z,0.90
2022-12-20T03:30:10.973Z,0.90
2022-12-20T03:32:58.086Z,1.00
2022-12-20T03:35:44.840Z,1.10
2022-12-20T03:38:33.353Z,1.10
2022-12-20T03:41:21.916Z,1.10
2022-12-20T03:44:08.798Z,1.10
2022-12-20T03:46:56.218Z,1.10
2022-12-20T03:49:43.234Z,1.10
2022-12-20T03:52:30.286Z,1.10
2022-12-20T03:55:19.608Z,1.10
2022-12-20T03:58:06.989Z,1.00
2022-12-20T04:00:54.072Z,1.10
2022-12-20T04:03:40.666Z,1.10
2022-12-20T04:06:28.002Z,1.10
2022-12-20T04:09:14.825Z,1.10
2022-12-20T04:12:03.093Z,1.10
2022-12-20T04:14:50.202Z,1.20
2022-12-20T04:17:37.499Z,1.20
2022-12-20T04:20:24.317Z,1.20
2022-12-20T04:23:11.532Z,1.20
2022-12-20T04:25:58.730Z,1.20
2022-12-20T04:28:46.904Z,1.20
2022-12-20T04:31:33.885Z,1.20
2022-12-20T04:34:21.044Z,1.20
2022-12-20T04:37:07.948Z,1.20
2022-12-20T04:39:55.579Z,1.20
2022-12-20T04:42:42.748Z,1.30
2022-12-20T04:45:31.550Z,1.30
2022-12-20T04:48:54.606Z,1.30
2022-12-20T04:51:25.855Z,1.30
2022-12-20T04:54:12.001Z,1.30
2022-12-20T04:56:58.955Z,1.30
2022-12-20T04:59:46.210Z,1.30
2022-12-20T05:02:34.464Z,1.30
2022-12-20T05:05:21.637Z,1.30
2022-12-20T05:08:08.306Z,1.30
2022-12-20T05:10:55.382Z,1.40
2022-12-20T05:13:42.660Z,1.40
2022-12-20T05:16:29.717Z,1.40
2022-12-20T05:19:18.209Z,1.40
2022-12-20T05:22:22.579Z,1.30
2022-12-20T05:25:29.336Z,1.30
2022-12-20T05:28:16.251Z,1.40
2022-12-20T05:31:04.279Z,1.30
2022-12-20T05:33:51.352Z,1.30
2022-12-20T05:36:39.848Z,1.20
2022-12-20T05:39:27.414Z,1.20
2022-12-20T05:42:14.662Z,1.20
2022-12-20T05:45:02.081Z,1.10
2022-12-20T05:47:49.157Z,1.10
2022-12-20T05:50:36.609Z,1.10
2022-12-20T05:53:26.719Z,1.10
2022-12-20T05:56:13.554Z,1.10
2022-12-20T05:59:00.784Z,1.10
2022-12-20T06:01:47.749Z,1.20
2022-12-20T06:04:35.398Z,1.10
2022-12-20T06:07:22.437Z,1.10
2022-12-20T06:10:12.571Z,1.10
2022-12-20T06:13:00.101Z,1.10
2022-12-20T06:15:47.797Z,1.20
2022-12-20T06:18:34.705Z,1.20
2022-12-20T06:21:21.695Z,1.20
2022-12-20T06:24:09.535Z,1.20
2022-12-20T06:26:58.382Z,1.30
2022-12-20T06:29:52.014Z,1.30
2022-12-20T06:32:39.671Z,1.30
2022-12-20T06:35:26.867Z,1.30
2022-12-20T06:38:13.945Z,1.30
2022-12-20T06:41:00.919Z,1.30
2022-12-20T06:43:49.331Z,1.40
2022-12-20T06:46:37.841Z,1.20
2022-12-20T06:49:25.154Z,1.20
2022-12-20T06:52:11.906Z,1.20
2022-12-20T06:54:58.609Z,1.10
2022-12-20T06:57:46.137Z,1.20
2022-12-20T07:00:34.976Z,1.20
2022-12-20T07:03:22.381Z,1.10
2022-12-20T07:06:09.848Z,1.10
2022-12-20T07:08:57.608Z,1.10
2022-12-20T07:11:44.627Z,1.10
2022-12-20T07:14:31.854Z,1.10
2022-12-20T07:17:20.135Z,1.10
2022-12-20T07:20:13.293Z,1.10
2022-12-20T07:23:01.407Z,1.20
2022-12-20T07:25:55.459Z,1.20
2022-12-20T07:28:42.660Z,1.20
2022-12-20T07:31:29.504Z,1.30
2022-12-20T07:34:18.211Z,1.30
2022-12-20T07:37:05.714Z,1.30
2022-12-20T07:39:52.651Z,1.40
2022-12-20T07:42:47.937Z,1.40
2022-12-20T07:45:35.890Z,1.40
2022-12-20T07:48:24.466Z,1.40
2022-12-20T07:51:16.502Z,1.40
2022-12-20T07:54:06.301Z,1.50
2022-12-20T07:56:55.977Z,1.50
2022-12-20T07:59:49.018Z,1.50
2022-12-20T08:02:41.927Z,1.60
2022-12-20T08:05:29.629Z,1.60
2022-12-20T08:08:18.859Z,1.60
2022-12-20T08:11:08.885Z,1.60
2022-12-20T08:13:58.316Z,1.60
2022-12-20T08:16:46.637Z,1.70
2022-12-20T08:19:33.816Z,1.80
2022-12-20T08:22:20.937Z,1.80
2022-12-20T08:25:11.946Z,1.90
2022-12-20T08:28:02.044Z,1.90
2022-12-20T08:30:49.139Z,2.00
2022-12-20T08:33:37.894Z,1.90
2022-12-20T08:36:25.151Z,2.00
2022-12-20T08:39:12.682Z,1.90
2022-12-20T08:42:01.342Z,2.00
2022-12-20T08:44:48.383Z,2.00
2022-12-20T08:47:35.834Z,2.20
2022-12-20T08:50:23.033Z,2.20
2022-12-20T08:53:09.915Z,2.20
2022-12-20T08:56:04.366Z,2.40
2022-12-20T08:58:53.213Z,2.50
2022-12-20T09:01:40.486Z,2.50
2022-12-20T09:04:27.867Z,2.60
2022-12-20T09:07:15.112Z,2.60
2022-12-20T09:10:02.623Z,2.80
2022-12-20T09:12:49.815Z,2.90
2022-12-20T09:15:38.466Z,3.00
2022-12-20T09:18:25.506Z,3.10
2022-12-20T09:21:13.094Z,3.10
2022-12-20T09:24:00.343Z,3.20
2022-12-20T09:26:50.285Z,3.20
2022-12-20T09:29:39.357Z,3.30
2022-12-20T09:32:27.865Z,3.20
2022-12-20T09:35:21.035Z,3.10
2022-12-20T09:38:10.041Z,3.10
2022-12-20T09:40:58.976Z,3.20
2022-12-20T09:43:46.644Z,3.20
2022-12-20T09:46:33.812Z,3.10
2022-12-20T09:49:27.043Z,3.20
2022-12-20T09:52:41.912Z,3.20
2022-12-20T09:55:36.047Z,3.20
2022-12-20T09:58:38.980Z,3.10
2022-12-20T10:01:34.271Z,3.10
2022-12-20T10:04:28.911Z,3.20
2022-12-20T10:07:27.127Z,3.20
2022-12-20T10:10:40.014Z,3.20
2022-12-20T10:13:44.551Z,3.30
2022-12-20T10:16:42.313Z,3.50
2022-12-20T10:20:00.399Z,3.70
2022-12-20T10:22:54.263Z,3.70
2022-12-20T10:25:42.818Z,3.80
2022-12-20T10:28:32.347Z,3.80
2022-12-20T10:31:20.578Z,3.90
2022-12-20T10:34:08.127Z,3.80
2022-12-20T10:39:52.622Z,3.80
2022-12-20T10:42:42.580Z,3.80
2022-12-20T10:45:36.415Z,3.90
2022-12-20T10:48:35.078Z,4.10
2022-12-20T10:51:23.944Z,4.10
2022-12-20T10:54:25.220Z,4.20
2022-12-20T10:57:21.211Z,4.00
2022-12-20T11:00:10.503Z,4.00
2022-12-20T11:03:07.559Z,3.90
2022-12-20T11:05:57.346Z,4.30
2022-12-20T11:08:52.550Z,5.30
2022-12-20T11:12:00.236Z,6.40
2022-12-20T11:14:49.439Z,7.60
2022-12-20T11:17:40.105Z,8.80
2022-12-20T11:20:36.480Z,9.70
2022-12-20T11:23:28.663Z,10.00
2022-12-20T11:26:30.842Z,10.20
2022-12-20T11:29:33.082Z,10.70
2022-12-20T11:32:35.557Z,9.50
2022-12-20T11:35:31.743Z,8.10
2022-12-20T11:38:31.269Z,7.40
2022-12-20T11:41:27.974Z,7.40
2022-12-20T11:44:27.091Z,7.60
2022-12-20T11:47:35.105Z,7.50
2022-12-20T11:50:43.758Z,7.30
2022-12-20T11:53:36.497Z,7.60
2022-12-20T11:56:28.173Z,8.10
2022-12-20T11:59:25.323Z,8.80
2022-12-20T12:02:16.376Z,9.10
2022-12-20T12:05:06.936Z,8.90
2022-12-20T12:08:02.171Z,8.50
2022-12-20T12:10:56.482Z,8.60
2022-12-20T12:13:45.216Z,9.20
2022-12-20T12:16:36.857Z,8.80
2022-12-20T12:19:28.081Z,8.70
2022-12-20T12:22:21.945Z,8.90
2022-12-20T12:25:16.582Z,9.30
2022-12-20T12:28:05.689Z,9.40
2022-12-20T12:30:58.767Z,9.40
2022-12-20T12:33:50.190Z,9.60
2022-12-20T12:37:13.139Z,9.40
2022-12-20T12:40:25.268Z,9.40
2022-12-20T12:43:30.424Z,9.40
2022-12-20T12:46:21.389Z,9.20
2022-12-20T12:49:17.787Z,8.90
2022-12-20T12:52:07.223Z,9.00
2022-12-20T12:55:39.128Z,9.00
2022-12-20T12:59:07.972Z,9.20
2022-12-20T13:01:57.131Z,9.40
2022-12-20T13:04:59.936Z,9.40
2022-12-20T13:07:47.295Z,9.40
2022-12-20T13:11:13.404Z,9.20
2022-12-20T13:14:51.315Z,9.30
2022-12-20T13:17:52.009Z,9.40
2022-12-20T13:20:39.623Z,9.20
2022-12-20T13:23:26.866Z,9.30
2022-12-20T13:26:52.984Z,9.20
2022-12-20T13:29:53.986Z,9.20
2022-12-20T13:33:15.162Z,9.40
2022-12-20T13:36:26.303Z,9.40
2022-12-20T13:39:36.998Z,9.40
2022-12-20T13:42:38.404Z,9.30
2022-12-20T13:45:27.837Z,9.20
2022-12-20T13:48:19.001Z,9.00
2022-12-20T13:51:07.877Z,8.90
2022-12-20T13:53:57.529Z,8.40
2022-12-20T13:56:49.537Z,8.40
2022-12-20T13:59:36.698Z,8.30
2022-12-20T14:02:29.361Z,8.20
2022-12-20T14:05:20.432Z,8.10
2022-12-20T14:08:10.533Z,8.10
2022-12-20T14:11:24.393Z,8.10
2022-12-20T14:14:15.395Z,8.00
2022-12-20T14:17:17.173Z,7.80
2022-12-20T14:20:16.333Z,7.70
2022-12-20T14:23:07.358Z,7.50
2022-12-20T14:25:56.977Z,7.40
2022-12-20T14:28:46.767Z,7.40
2022-12-20T14:31:40.255Z,7.20
2022-12-20T14:34:32.098Z,7.00
2022-12-20T14:37:35.990Z,6.90
2022-12-20T14:40:24.530Z,6.80
2022-12-20T14:43:17.295Z,6.60
2022-12-20T14:46:19.694Z,6.60
2022-12-20T14:49:16.776Z,6.60
2022-12-20T14:52:15.472Z,6.40
2022-12-20T14:55:10.360Z,6.40
2022-12-20T14:57:58.784Z,6.30
2022-12-20T15:00:58.455Z,6.20
2022-12-20T15:03:52.921Z,6.10
2022-12-20T15:06:44.788Z,6.00
2022-12-20T15:09:32.091Z,6.00
2022-12-20T15:12:20.248Z,6.00
2022-12-20T15:15:28.913Z,6.00
2022-12-20T15:18:18.690Z,5.90
2022-12-20T15:21:11.744Z,5.80
2022-12-20T15:24:02.346Z,5.70
2022-12-20T15:26:50.092Z,5.70
2022-12-20T15:29:38.566Z,5.50
2022-12-20T15:32:30.009Z,5.50
2022-12-20T15:35:17.380Z,5.40
2022-12-20T15:38:04.197Z,5.40
2022-12-20T15:40:55.115Z,5.20
2022-12-20T15:43:42.556Z,5.30
2022-12-20T15:46:31.599Z,5.20
2022-12-20T15:49:20.439Z,5.00
2022-12-20T15:52:07.650Z,5.00
2022-12-20T15:54:54.599Z,5.00
2022-12-20T15:57:41.754Z,4.90
2022-12-20T16:00:28.968Z,5.00
2022-12-20T16:03:20.611Z,5.00
2022-12-20T16:06:10.165Z,4.90
2022-12-20T16:08:57.370Z,5.00
2022-12-20T16:12:07.020Z,5.00
2022-12-20T16:15:19.092Z,4.90
2022-12-20T16:18:06.031Z,5.00
2022-12-20T16:20:54.182Z,5.00
2022-12-20T16:23:41.186Z,5.10
2022-12-20T16:26:28.365Z,5.20
2022-12-20T16:29:15.787Z,5.10
2022-12-20T16:32:02.572Z,5.40
2022-12-20T16:34:51.366Z,5.30
2022-12-20T16:37:39.855Z,5.30
2022-12-20T16:40:28.673Z,5.20
2022-12-20T16:43:18.470Z,5.10
2022-12-20T16:46:06.585Z,5.10
2022-12-20T16:48:54.279Z,5.10
2022-12-20T16:51:44.563Z,5.10
2022-12-20T16:54:33.420Z,5.00
2022-12-20T16:57:21.451Z,5.00
2022-12-20T17:00:10.347Z,4.90
2022-12-20T17:02:59.216Z,4.90
2022-12-20T17:05:46.305Z,4.80
2022-12-20T17:11:39.661Z,4.70
2022-12-20T17:14:26.704Z,4.70
2022-12-20T17:17:13.780Z,4.50
2022-12-20T17:20:00.897Z,4.50
2022-12-20T17:25:56.012Z,4.40
2022-12-20T17:28:44.594Z,4.30
2022-12-20T17:31:34.572Z,4.20
2022-12-20T17:34:23.742Z,4.30
2022-12-20T17:37:11.022Z,4.20
2022-12-20T17:39:57.887Z,4.10
2022-12-20T17:42:44.942Z,4.10
2022-12-20T17:45:36.312Z,4.00
2022-12-20T17:48:30.413Z,4.00
2022-12-20T17:51:23.155Z,4.00
2022-12-20T17:54:17.733Z,4.00
2022-12-20T17:57:04.949Z,4.10
2022-12-20T17:59:51.939Z,4.00
2022-12-20T18:02:41.657Z,4.10
2022-12-20T18:05:28.665Z,4.10
2022-12-20T18:08:15.529Z,4.00
2022-12-20T18:11:02.389Z,4.00
2022-12-20T18:13:50.979Z,4.00
2022-12-20T18:16:39.220Z,4.00
2022-12-20T18:19:28.122Z,3.90
2022-12-20T18:22:15.671Z,3.90
2022-12-20T18:25:07.099Z,3.90
2022-12-20T18:27:54.134Z,3.90
2022-12-20T18:30:42.060Z,3.90
2022-12-20T18:33:28.957Z,3.80
2022-12-20T18:36:20.101Z,3.80
2022-12-20T18:39:09.362Z,3.80
2022-12-20T18:41:56.707Z,3.70
2022-12-20T18:44:43.640Z,3.70
2022-12-20T18:47:32.428Z,3.50
2022-12-20T18:50:19.612Z,3.60
2022-12-20T18:53:08.563Z,3.60
2022-12-20T18:55:55.544Z,3.50
2022-12-20T18:58:43.229Z,3.50
2022-12-20T19:01:32.288Z,3.50
2022-12-20T19:04:24.265Z,3.50
2022-12-20T19:07:12.387Z,3.60
2022-12-20T19:10:01.182Z,3.60
2022-12-20T19:12:48.249Z,3.60
2022-12-20T19:15:35.162Z,3.60
2022-12-20T19:18:22.051Z,3.60
2022-12-20T19:21:10.641Z,3.50
2022-12-20T19:23:59.804Z,3.50
2022-12-20T19:26:48.444Z,3.50
2022-12-20T19:29:35.680Z,3.40
2022-12-20T19:32:23.343Z,3.20
2022-12-20T19:35:45.255Z,3.30
2022-12-20T19:38:17.884Z,3.20
2022-12-20T19:41:42.405Z,3.20
2022-12-20T19:44:30.781Z,3.20
2022-12-20T19:47:17.890Z,3.20
2022-12-20T19:50:06.273Z,3.20
2022-12-20T19:52:53.606Z,3.20
2022-12-20T19:55:40.836Z,3.20
2022-12-20T19:58:52.672Z,3.20
2022-12-20T20:01:42.064Z,3.20
2022-12-20T20:04:29.773Z,3.20
2022-12-20T20:07:16.815Z,3.10
2022-12-20T20:10:03.983Z,3.10
2022-12-20T20:12:50.782Z,3.20
2022-12-20T20:15:37.887Z,3.10
2022-12-20T20:18:28.539Z,3.10
2022-12-20T20:21:21.225Z,3.10
2022-12-20T20:24:09.914Z,3.00
2022-12-20T20:26:57.444Z,3.10
2022-12-20T20:29:44.523Z,3.10
2022-12-20T20:32:32.640Z,3.10
2022-12-20T20:35:30.623Z,3.10
2022-12-20T20:38:20.889Z,3.10
2022-12-20T20:41:08.089Z,3.10
2022-12-20T20:44:12.325Z,3.10
2022-12-20T20:47:00.132Z,3.00
2022-12-20T20:49:47.341Z,3.10
2022-12-20T20:52:36.108Z,3.10
2022-12-20T20:55:24.204Z,3.10
2022-12-20T20:58:11.610Z,3.10
2022-12-20T21:01:00.173Z,3.10
2022-12-20T21:03:47.584Z,3.10
2022-12-20T21:06:40.887Z,3.10
2022-12-20T21:09:32.150Z,3.10
2022-12-20T21:12:20.431Z,3.10
2022-12-20T21:15:24.878Z,3.20
2022-12-20T21:18:12.383Z,3.20
2022-12-20T21:20:59.610Z,3.10
2022-12-20T21:23:48.292Z,3.10
2022-12-20T21:26:36.936Z,3.20
2022-12-20T21:29:23.994Z,3.10
2022-12-20T21:32:11.061Z,3.20
2022-12-20T21:34:59.557Z,3.30
2022-12-20T21:37:46.311Z,3.40
2022-12-20T21:40:33.143Z,3.40
2022-12-20T21:43:22.053Z,3.40
2022-12-20T21:46:11.470Z,3.50
2022-12-20T21:48:59.835Z,3.50
2022-12-20T21:51:47.055Z,3.60
2022-12-20T21:54:34.222Z,3.60
2022-12-20T21:57:21.177Z,3.80
2022-12-20T22:00:11.556Z,3.80
2022-12-20T22:02:58.685Z,3.80
2022-12-20T22:05:48.196Z,3.80
2022-12-20T22:08:36.233Z,3.80
2022-12-20T22:11:23.494Z,3.80
2022-12-20T22:14:13.845Z,3.80
2022-12-20T22:17:02.249Z,3.80
2022-12-20T22:19:50.665Z,4.00
2022-12-20T22:22:37.533Z,4.20
2022-12-20T22:25:24.505Z,4.30
2022-12-20T22:28:12.726Z,4.30
2022-12-20T22:30:59.817Z,4.20
2022-12-20T22:33:49.453Z,4.20
2022-12-20T22:36:39.351Z,4.70
2022-12-20T22:39:26.449Z,5.10
2022-12-20T22:42:13.785Z,5.90
2022-12-20T22:45:00.882Z,6.30
2022-12-20T22:47:48.019Z,6.80
2022-12-20T22:50:36.654Z,6.60
2022-12-20T22:53:23.775Z,6.50
2022-12-20T22:56:11.913Z,6.80
2022-12-20T22:58:58.779Z,7.40
2022-12-20T23:01:45.710Z,7.40
2022-12-20T23:04:32.683Z,7.30
2022-12-20T23:07:21.806Z,7.40
2022-12-20T23:10:29.974Z,7.50
2022-12-20T23:13:34.585Z,7.30
2022-12-20T23:16:22.949Z,7.50
2022-12-20T23:19:09.971Z,7.80
2022-12-20T23:22:14.089Z,7.90
2022-12-20T23:25:02.888Z,8.10
2022-12-20T23:27:51.519Z,8.00
2022-12-20T23:30:38.368Z,7.90
2022-12-20T23:33:25.376Z,7.80
2022-12-20T23:36:12.547Z,7.70
2022-12-20T23:39:00.081Z,7.70
2022-12-20T23:41:48.561Z,7.60
2022-12-20T23:44:35.657Z,7.60
2022-12-20T23:47:22.597Z,7.60
2022-12-20T23:50:10.285Z,7.60
2022-12-20T23:52:57.535Z,7.40
2022-12-20T23:55:44.259Z,7.30
2022-12-20T23:58:32.811Z,7.40
